sensor_id;sensor_type;location;lat;lon;timestamp;temperature;humidity
4960;DHT22;2495;48.200;11.532;2023-06-22T00:00:34;24.30;71.10
4960;DHT22;2495;48.200;11.532;2023-06-22T00:05:42;24.20;71.60
4960;DHT22;2495;48.200;11.532;2023-06-22T00:10:45;24.20;72.80
4960;DHT22;2495;48.200;11.532;2023-06-22T00:15:46;24.10;72.50
4960;DHT22;2495;48.200;11.532;2023-06-22T00:20:47;24.20;71.70
4960;DHT22;2495;48.200;11.532;2023-06-22T00:25:49;24.20;71.40
4960;DHT22;2495;48.200;11.532;2023-06-22T00:30:50;24.10;72.70
4960;DHT22;2495;48.200;11.532;2023-06-22T00:35:51;24.20;71.80
4960;DHT22;2495;48.200;11.532;2023-06-22T00:40:52;24.10;71.70
4960;DHT22;2495;48.200;11.532;2023-06-22T00:45:55;24.00;71.70
4960;DHT22;2495;48.200;11.532;2023-06-22T00:50:55;24.00;71.80
4960;DHT22;2495;48.200;11.532;2023-06-22T00:55:56;23.90;71.70
4960;DHT22;2495;48.200;11.532;2023-06-22T01:00:57;23.90;71.50
4960;DHT22;2495;48.200;11.532;2023-06-22T01:06:02;23.90;71.30
4960;DHT22;2495;48.200;11.532;2023-06-22T01:11:16;23.90;71.40
4960;DHT22;2495;48.200;11.532;2023-06-22T01:16:18;23.80;71.60
4960;DHT22;2495;48.200;11.532;2023-06-22T01:21:18;23.80;71.90
4960;DHT22;2495;48.200;11.532;2023-06-22T01:26:28;23.70;72.00
4960;DHT22;2495;48.200;11.532;2023-06-22T01:31:27;23.60;72.40
4960;DHT22;2495;48.200;11.532;2023-06-22T01:36:27;23.60;72.40
4960;DHT22;2495;48.200;11.532;2023-06-22T01:41:29;23.50;72.60
4960;DHT22;2495;48.200;11.532;2023-06-22T01:46:30;23.40;72.30
4960;DHT22;2495;48.200;11.532;2023-06-22T01:51:31;23.40;72.70
4960;DHT22;2495;48.200;11.532;2023-06-22T01:56:33;23.30;72.60
4960;DHT22;2495;48.200;11.532;2023-06-22T02:01:45;23.30;72.60
4960;DHT22;2495;48.200;11.532;2023-06-22T02:06:45;23.30;73.20
4960;DHT22;2495;48.200;11.532;2023-06-22T02:11:46;23.30;74.20
4960;DHT22;2495;48.200;11.532;2023-06-22T02:16:48;23.50;73.00
4960;DHT22;2495;48.200;11.532;2023-06-22T02:21:49;23.50;72.60
4960;DHT22;2495;48.200;11.532;2023-06-22T02:26:51;23.40;72.50
4960;DHT22;2495;48.200;11.532;2023-06-22T02:31:52;23.30;72.70
4960;DHT22;2495;48.200;11.532;2023-06-22T02:36:54;23.20;73.20
4960;DHT22;2495;48.200;11.532;2023-06-22T02:41:55;23.10;73.80
4960;DHT22;2495;48.200;11.532;2023-06-22T02:46:57;23.00;74.10
4960;DHT22;2495;48.200;11.532;2023-06-22T02:51:58;22.90;74.40
4960;DHT22;2495;48.200;11.532;2023-06-22T02:57:00;22.80;74.70
4960;DHT22;2495;48.200;11.532;2023-06-22T03:02:01;22.70;74.80
4960;DHT22;2495;48.200;11.532;2023-06-22T03:07:02;22.70;74.90
4960;DHT22;2495;48.200;11.532;2023-06-22T03:12:04;22.50;75.80
4960;DHT22;2495;48.200;11.532;2023-06-22T03:17:06;22.40;76.30
4960;DHT22;2495;48.200;11.532;2023-06-22T03:22:07;22.40;76.60
4960;DHT22;2495;48.200;11.532;2023-06-22T03:27:09;22.40;76.90
4960;DHT22;2495;48.200;11.532;2023-06-22T03:32:10;22.40;76.70
4960;DHT22;2495;48.200;11.532;2023-06-22T03:37:13;22.40;76.90
4960;DHT22;2495;48.200;11.532;2023-06-22T03:42:13;22.20;77.30
4960;DHT22;2495;48.200;11.532;2023-06-22T03:47:14;22.20;77.50
4960;DHT22;2495;48.200;11.532;2023-06-22T03:52:16;22.30;77.60
4960;DHT22;2495;48.200;11.532;2023-06-22T03:57:17;22.30;77.40
4960;DHT22;2495;48.200;11.532;2023-06-22T04:02:18;22.30;77.50
4960;DHT22;2495;48.200;11.532;2023-06-22T04:07:19;22.30;77.70
4960;DHT22;2495;48.200;11.532;2023-06-22T04:12:21;22.30;77.60
4960;DHT22;2495;48.200;11.532;2023-06-22T04:17:22;22.40;77.90
4960;DHT22;2495;48.200;11.532;2023-06-22T04:22:24;22.40;77.90
4960;DHT22;2495;48.200;11.532;2023-06-22T04:27:25;22.40;78.00
4960;DHT22;2495;48.200;11.532;2023-06-22T04:32:26;22.40;78.40
4960;DHT22;2495;48.200;11.532;2023-06-22T04:37:27;22.40;78.40
4960;DHT22;2495;48.200;11.532;2023-06-22T04:42:29;22.50;78.20
4960;DHT22;2495;48.200;11.532;2023-06-22T04:47:30;22.70;78.30
4960;DHT22;2495;48.200;11.532;2023-06-22T04:52:32;22.70;78.40
4960;DHT22;2495;48.200;11.532;2023-06-22T04:57:33;22.80;78.20
4960;DHT22;2495;48.200;11.532;2023-06-22T05:02:34;22.80;78.20
4960;DHT22;2495;48.200;11.532;2023-06-22T05:07:36;23.00;77.90
4960;DHT22;2495;48.200;11.532;2023-06-22T05:12:37;23.10;77.30
4960;DHT22;2495;48.200;11.532;2023-06-22T05:17:38;23.30;76.70
4960;DHT22;2495;48.200;11.532;2023-06-22T05:22:45;23.40;76.20
4960;DHT22;2495;48.200;11.532;2023-06-22T05:27:47;23.60;75.40
4960;DHT22;2495;48.200;11.532;2023-06-22T05:38:07;23.90;74.90
4960;DHT22;2495;48.200;11.532;2023-06-22T05:43:09;24.40;74.90
4960;DHT22;2495;48.200;11.532;2023-06-22T05:48:13;24.50;72.50
4960;DHT22;2495;48.200;11.532;2023-06-22T05:53:18;24.70;72.80
4960;DHT22;2495;48.200;11.532;2023-06-22T05:58:20;24.70;71.90
4960;DHT22;2495;48.200;11.532;2023-06-22T06:03:24;24.60;71.70
4960;DHT22;2495;48.200;11.532;2023-06-22T06:08:26;24.80;71.40
4960;DHT22;2495;48.200;11.532;2023-06-22T06:13:28;25.00;70.70
4960;DHT22;2495;48.200;11.532;2023-06-22T06:18:36;25.30;70.60
4960;DHT22;2495;48.200;11.532;2023-06-22T06:23:49;25.60;70.60
4960;DHT22;2495;48.200;11.532;2023-06-22T06:28:50;25.80;69.70
4960;DHT22;2495;48.200;11.532;2023-06-22T06:33:55;25.80;68.90
4960;DHT22;2495;48.200;11.532;2023-06-22T06:39:02;25.90;68.70
4960;DHT22;2495;48.200;11.532;2023-06-22T06:44:07;25.90;68.60
4960;DHT22;2495;48.200;11.532;2023-06-22T06:49:25;26.10;67.90
4960;DHT22;2495;48.200;11.532;2023-06-22T06:54:27;26.20;67.60
4960;DHT22;2495;48.200;11.532;2023-06-22T06:59:34;26.40;67.50
4960;DHT22;2495;48.200;11.532;2023-06-22T07:15:19;27.20;66.30
4960;DHT22;2495;48.200;11.532;2023-06-22T07:20:41;27.80;65.00
4960;DHT22;2495;48.200;11.532;2023-06-22T07:25:44;29.00;63.10
4960;DHT22;2495;48.200;11.532;2023-06-22T07:30:45;29.00;62.60
4960;DHT22;2495;48.200;11.532;2023-06-22T07:51:36;29.70;58.90
4960;DHT22;2495;48.200;11.532;2023-06-22T07:56:39;30.20;58.40
4960;DHT22;2495;48.200;11.532;2023-06-22T08:01:45;30.50;56.20
4960;DHT22;2495;48.200;11.532;2023-06-22T08:07:04;30.90;55.30
4960;DHT22;2495;48.200;11.532;2023-06-22T08:12:18;31.20;54.80
4960;DHT22;2495;48.200;11.532;2023-06-22T08:22:51;31.40;54.50
4960;DHT22;2495;48.200;11.532;2023-06-22T08:28:23;31.10;55.40
4960;DHT22;2495;48.200;11.532;2023-06-22T08:33:24;31.90;54.40
4960;DHT22;2495;48.200;11.532;2023-06-22T08:38:29;32.50;52.20
4960;DHT22;2495;48.200;11.532;2023-06-22T08:43:39;32.60;51.60
4960;DHT22;2495;48.200;11.532;2023-06-22T08:48:52;32.50;51.00
4960;DHT22;2495;48.200;11.532;2023-06-22T08:53:54;32.30;51.10
4960;DHT22;2495;48.200;11.532;2023-06-22T08:58:56;32.00;51.90
4960;DHT22;2495;48.200;11.532;2023-06-22T09:03:57;32.30;52.30
4960;DHT22;2495;48.200;11.532;2023-06-22T09:08:59;32.70;50.90
4960;DHT22;2495;48.200;11.532;2023-06-22T09:14:01;33.30;49.80
4960;DHT22;2495;48.200;11.532;2023-06-22T09:19:02;34.00;48.50
4960;DHT22;2495;48.200;11.532;2023-06-22T09:24:04;34.30;47.90
4960;DHT22;2495;48.200;11.532;2023-06-22T09:29:06;34.40;47.40
4960;DHT22;2495;48.200;11.532;2023-06-22T09:34:11;34.80;46.70
4960;DHT22;2495;48.200;11.532;2023-06-22T09:39:10;34.80;45.80
4960;DHT22;2495;48.200;11.532;2023-06-22T09:44:11;35.20;44.90
4960;DHT22;2495;48.200;11.532;2023-06-22T09:49:13;35.40;44.60
4960;DHT22;2495;48.200;11.532;2023-06-22T09:54:16;35.40;44.80
4960;DHT22;2495;48.200;11.532;2023-06-22T09:59:20;35.30;44.00
4960;DHT22;2495;48.200;11.532;2023-06-22T10:04:21;36.10;43.80
4960;DHT22;2495;48.200;11.532;2023-06-22T10:09:23;36.70;43.00
4960;DHT22;2495;48.200;11.532;2023-06-22T10:14:24;37.00;42.20
4960;DHT22;2495;48.200;11.532;2023-06-22T10:19:34;37.40;41.60
4960;DHT22;2495;48.200;11.532;2023-06-22T10:24:35;37.90;40.30
4960;DHT22;2495;48.200;11.532;2023-06-22T10:29:37;38.20;39.80
4960;DHT22;2495;48.200;11.532;2023-06-22T10:34:39;38.50;39.50
4960;DHT22;2495;48.200;11.532;2023-06-22T10:39:40;38.20;39.40
4960;DHT22;2495;48.200;11.532;2023-06-22T10:44:42;38.30;39.50
4960;DHT22;2495;48.200;11.532;2023-06-22T10:49:43;38.60;39.80
4960;DHT22;2495;48.200;11.532;2023-06-22T10:54:45;39.40;39.10
4960;DHT22;2495;48.200;11.532;2023-06-22T10:59:47;40.00;37.70
4960;DHT22;2495;48.200;11.532;2023-06-22T11:04:48;40.10;36.70
4960;DHT22;2495;48.200;11.532;2023-06-22T11:09:53;38.80;37.70
4960;DHT22;2495;48.200;11.532;2023-06-22T11:20:15;36.50;41.50
4960;DHT22;2495;48.200;11.532;2023-06-22T11:25:17;36.80;41.80
4960;DHT22;2495;48.200;11.532;2023-06-22T11:30:21;37.30;40.60
4960;DHT22;2495;48.200;11.532;2023-06-22T11:35:39;37.60;39.80
4960;DHT22;2495;48.200;11.532;2023-06-22T11:40:47;38.60;38.40
4960;DHT22;2495;48.200;11.532;2023-06-22T11:45:43;38.70;37.80
4960;DHT22;2495;48.200;11.532;2023-06-22T11:51:05;38.50;39.00
4960;DHT22;2495;48.200;11.532;2023-06-22T11:56:07;38.50;39.00
4960;DHT22;2495;48.200;11.532;2023-06-22T12:06:25;38.60;38.40
4960;DHT22;2495;48.200;11.532;2023-06-22T12:11:27;39.00;38.40
4960;DHT22;2495;48.200;11.532;2023-06-22T12:16:28;38.90;38.50
4960;DHT22;2495;48.200;11.532;2023-06-22T12:21:29;39.00;38.30
4960;DHT22;2495;48.200;11.532;2023-06-22T12:26:34;38.90;38.90
4960;DHT22;2495;48.200;11.532;2023-06-22T12:31:35;38.50;39.40
4960;DHT22;2495;48.200;11.532;2023-06-22T12:36:37;37.70;40.10
4960;DHT22;2495;48.200;11.532;2023-06-22T12:41:40;37.70;41.50
4960;DHT22;2495;48.200;11.532;2023-06-22T12:46:42;37.70;41.30
4960;DHT22;2495;48.200;11.532;2023-06-22T12:51:43;37.60;41.20
4960;DHT22;2495;48.200;11.532;2023-06-22T12:56:45;37.10;41.60
4960;DHT22;2495;48.200;11.532;2023-06-22T13:01:46;36.80;42.10
4960;DHT22;2495;48.200;11.532;2023-06-22T13:06:47;36.50;42.30
4960;DHT22;2495;48.200;11.532;2023-06-22T13:11:49;36.30;42.90
4960;DHT22;2495;48.200;11.532;2023-06-22T13:16:50;36.40;42.80
4960;DHT22;2495;48.200;11.532;2023-06-22T13:21:52;36.80;42.50
4960;DHT22;2495;48.200;11.532;2023-06-22T13:26:53;37.10;42.00
4960;DHT22;2495;48.200;11.532;2023-06-22T13:31:55;37.10;41.60
4960;DHT22;2495;48.200;11.532;2023-06-22T13:36:56;37.10;41.30
4960;DHT22;2495;48.200;11.532;2023-06-22T13:41:58;36.80;41.40
4960;DHT22;2495;48.200;11.532;2023-06-22T13:47:00;37.00;40.60
4960;DHT22;2495;48.200;11.532;2023-06-22T13:52:02;37.20;40.00
4960;DHT22;2495;48.200;11.532;2023-06-22T13:57:15;38.20;39.60
4960;DHT22;2495;48.200;11.532;2023-06-22T14:02:17;39.10;38.90
4960;DHT22;2495;48.200;11.532;2023-06-22T14:07:24;39.40;37.10
4960;DHT22;2495;48.200;11.532;2023-06-22T14:44:08;39.30;36.40
4960;DHT22;2495;48.200;11.532;2023-06-22T14:49:10;39.00;35.20
4960;DHT22;2495;48.200;11.532;2023-06-22T14:59:34;39.20;33.50
4960;DHT22;2495;48.200;11.532;2023-06-22T15:04:36;39.30;33.60
4960;DHT22;2495;48.200;11.532;2023-06-22T15:42:05;38.00;35.20
4960;DHT22;2495;48.200;11.532;2023-06-22T15:47:15;38.00;35.60
4960;DHT22;2495;48.200;11.532;2023-06-22T15:52:17;37.90;34.40
4960;DHT22;2495;48.200;11.532;2023-06-22T15:57:17;37.60;34.10
4960;DHT22;2495;48.200;11.532;2023-06-22T16:02:19;37.30;34.50
4960;DHT22;2495;48.200;11.532;2023-06-22T16:07:20;37.10;34.60
4960;DHT22;2495;48.200;11.532;2023-06-22T16:12:23;36.70;36.20
4960;DHT22;2495;48.200;11.532;2023-06-22T16:17:25;36.70;35.60
4960;DHT22;2495;48.200;11.532;2023-06-22T16:22:27;36.30;36.60
4960;DHT22;2495;48.200;11.532;2023-06-22T16:27:28;36.30;36.00
4960;DHT22;2495;48.200;11.532;2023-06-22T16:32:30;36.20;36.40
4960;DHT22;2495;48.200;11.532;2023-06-22T16:37:31;36.00;36.50
4960;DHT22;2495;48.200;11.532;2023-06-22T16:42:33;35.90;36.60
4960;DHT22;2495;48.200;11.532;2023-06-22T16:47:34;35.80;36.90
4960;DHT22;2495;48.200;11.532;2023-06-22T16:52:35;35.50;37.50
4960;DHT22;2495;48.200;11.532;2023-06-22T16:57:37;35.50;37.10
4960;DHT22;2495;48.200;11.532;2023-06-22T17:02:42;35.20;37.30
4960;DHT22;2495;48.200;11.532;2023-06-22T17:07:41;35.00;39.00
4960;DHT22;2495;48.200;11.532;2023-06-22T17:12:41;34.60;40.40
4960;DHT22;2495;48.200;11.532;2023-06-22T17:17:43;33.90;43.10
4960;DHT22;2495;48.200;11.532;2023-06-22T17:22:45;33.30;49.10
4960;DHT22;2495;48.200;11.532;2023-06-22T17:27:49;32.50;52.00
4960;DHT22;2495;48.200;11.532;2023-06-22T17:32:50;31.10;56.20
4960;DHT22;2495;48.200;11.532;2023-06-22T17:37:53;29.80;61.60
4960;DHT22;2495;48.200;11.532;2023-06-22T17:43:03;28.40;65.30
4960;DHT22;2495;48.200;11.532;2023-06-22T17:48:04;27.20;67.20
4960;DHT22;2495;48.200;11.532;2023-06-22T17:53:12;26.50;68.40
4960;DHT22;2495;48.200;11.532;2023-06-22T17:58:13;26.00;69.30
4960;DHT22;2495;48.200;11.532;2023-06-22T18:03:15;25.60;71.10
4960;DHT22;2495;48.200;11.532;2023-06-22T18:08:16;25.50;73.00
4960;DHT22;2495;48.200;11.532;2023-06-22T18:13:21;25.60;74.00
4960;DHT22;2495;48.200;11.532;2023-06-22T18:18:21;25.60;74.90
4960;DHT22;2495;48.200;11.532;2023-06-22T18:23:23;25.50;75.40
4960;DHT22;2495;48.200;11.532;2023-06-22T18:28:25;25.40;75.70
4960;DHT22;2495;48.200;11.532;2023-06-22T18:33:26;25.20;76.20
4960;DHT22;2495;48.200;11.532;2023-06-22T18:38:28;25.20;76.50
4960;DHT22;2495;48.200;11.532;2023-06-22T18:43:29;25.10;76.80
4960;DHT22;2495;48.200;11.532;2023-06-22T18:48:31;25.00;76.80
4960;DHT22;2495;48.200;11.532;2023-06-22T18:53:32;24.90;77.90
4960;DHT22;2495;48.200;11.532;2023-06-22T18:58:37;24.50;80.00
4960;DHT22;2495;48.200;11.532;2023-06-22T19:03:38;24.20;81.00
4960;DHT22;2495;48.200;11.532;2023-06-22T19:09:14;24.20;81.90
4960;DHT22;2495;48.200;11.532;2023-06-22T19:14:19;24.10;84.30
4960;DHT22;2495;48.200;11.532;2023-06-22T19:19:20;24.10;84.80
4960;DHT22;2495;48.200;11.532;2023-06-22T19:24:31;24.20;84.80
4960;DHT22;2495;48.200;11.532;2023-06-22T19:29:32;24.30;86.10
4960;DHT22;2495;48.200;11.532;2023-06-22T19:34:34;24.50;84.40
4960;DHT22;2495;48.200;11.532;2023-06-22T19:39:36;24.40;83.40
4960;DHT22;2495;48.200;11.532;2023-06-22T19:44:38;24.10;83.90
4960;DHT22;2495;48.200;11.532;2023-06-22T19:49:39;23.50;88.70
4960;DHT22;2495;48.200;11.532;2023-06-22T19:54:40;23.50;88.50
4960;DHT22;2495;48.200;11.532;2023-06-22T19:59:42;23.60;89.20
4960;DHT22;2495;48.200;11.532;2023-06-22T20:04:49;23.40;89.30
4960;DHT22;2495;48.200;11.532;2023-06-22T20:15:27;23.20;90.80
4960;DHT22;2495;48.200;11.532;2023-06-22T20:44:00;22.90;91.40
4960;DHT22;2495;48.200;11.532;2023-06-22T22:13:41;22.50;92.80
4960;DHT22;2495;48.200;11.532;2023-06-22T22:34:54;22.40;92.60
4960;DHT22;2495;48.200;11.532;2023-06-22T22:39:55;22.10;93.00
4960;DHT22;2495;48.200;11.532;2023-06-22T22:45:00;22.20;92.40
4960;DHT22;2495;48.200;11.532;2023-06-22T22:49:59;22.20;91.90
4960;DHT22;2495;48.200;11.532;2023-06-22T22:55:03;22.10;91.90
4960;DHT22;2495;48.200;11.532;2023-06-22T23:00:05;22.00;91.70
4960;DHT22;2495;48.200;11.532;2023-06-22T23:05:15;21.70;91.70
4960;DHT22;2495;48.200;11.532;2023-06-22T23:10:15;21.70;91.70
4960;DHT22;2495;48.200;11.532;2023-06-22T23:15:16;21.60;91.40
4960;DHT22;2495;48.200;11.532;2023-06-22T23:20:20;21.60;91.60
4960;DHT22;2495;48.200;11.532;2023-06-22T23:25:22;21.60;91.60
4960;DHT22;2495;48.200;11.532;2023-06-22T23:30:23;21.50;91.90
4960;DHT22;2495;48.200;11.532;2023-06-22T23:35:25;21.50;91.70
4960;DHT22;2495;48.200;11.532;2023-06-22T23:40:26;21.50;91.80
4960;DHT22;2495;48.200;11.532;2023-06-22T23:45:28;21.40;91.50
4960;DHT22;2495;48.200;11.532;2023-06-22T23:50:29;21.40;91.50
4960;DHT22;2495;48.200;11.532;2023-06-22T23:55:30;21.40;92.70
